createdAt,value
2017-11-14T00:00:18.109Z,87.45
2017-11-14T00:00:58.710Z,87.35
2017-11-14T00:01:39.277Z,87.45
2017-11-14T00:02:19.855Z,87.35
2017-11-14T00:03:00.415Z,87.35
2017-11-14T00:03:40.996Z,87.35
2017-11-14T00:04:21.573Z,87.16
2017-11-14T00:05:02.169Z,87.54
2017-11-14T00:05:42.762Z,87.63
2017-11-14T00:06:23.332Z,87.54
2017-11-14T00:07:03.931Z,87.54
2017-11-14T00:07:44.512Z,87.45
2017-11-14T00:08:25.075Z,87.45
2017-11-14T00:09:05.669Z,87.54
2017-11-14T00:09:46.250Z,87.54
2017-11-14T00:10:26.844Z,87.25
2017-11-14T00:11:07.433Z,87.16
2017-11-14T00:11:48.014Z,87.45
2017-11-14T00:12:28.587Z,87.35
2017-11-14T00:13:09.185Z,87.25
2017-11-14T00:13:49.779Z,87.54
2017-11-14T00:14:30.418Z,87.35
2017-11-14T00:15:11.009Z,87.49
2017-11-14T00:15:51.597Z,87.35
2017-11-14T00:16:32.159Z,87.49
2017-11-14T00:17:12.761Z,87.35
2017-11-14T00:17:53.355Z,87.45
2017-11-14T00:18:33.932Z,87.02
2017-11-14T00:19:14.514Z,87.77
2017-11-14T00:19:55.187Z,87.4
2017-11-14T00:20:35.752Z,87.16
2017-11-14T00:21:16.351Z,87.4
2017-11-14T00:21:56.914Z,87.4
2017-11-14T00:22:37.481Z,87.35
2017-11-14T00:23:18.093Z,87.59
2017-11-14T00:23:58.719Z,88.01
2017-11-14T00:24:39.316Z,87.97
2017-11-14T00:25:19.914Z,87.68
2017-11-14T00:26:00.825Z,87.77
2017-11-14T00:26:42.307Z,87.3
2017-11-14T00:27:23.032Z,87.4
2017-11-14T00:28:03.616Z,87.49
2017-11-14T00:28:44.174Z,87.21
2017-11-14T00:29:24.833Z,87.4
2017-11-14T00:30:05.425Z,87.59
2017-11-14T00:30:46.328Z,87.49
2017-11-14T00:31:26.908Z,87.12
2017-11-14T00:32:07.470Z,87.02
2017-11-14T00:32:48.060Z,87.59
2017-11-14T00:33:28.640Z,87.49
2017-11-14T00:34:09.292Z,87.4
2017-11-14T00:34:49.877Z,87.49
2017-11-14T00:35:30.461Z,87.3
2017-11-14T00:36:11.055Z,87.4
2017-11-14T00:36:51.626Z,87.3
2017-11-14T00:37:32.180Z,87.4
2017-11-14T00:38:12.756Z,87.59
2017-11-14T00:38:53.337Z,86.93
2017-11-14T00:39:33.920Z,87.3
2017-11-14T00:40:14.522Z,87.3
2017-11-14T00:40:55.087Z,87.21
2017-11-14T00:41:35.668Z,87.3
2017-11-14T00:42:16.327Z,87.3
2017-11-14T00:42:56.938Z,87.3
2017-11-14T00:43:37.523Z,87.21
2017-11-14T00:44:18.107Z,87.4
2017-11-14T00:44:58.704Z,87.59
2017-11-14T00:45:39.282Z,87.02
2017-11-14T00:46:19.824Z,87.49
2017-11-14T00:47:00.390Z,87.49
2017-11-14T00:47:40.962Z,87.4
2017-11-14T00:48:21.571Z,87.49
2017-11-14T00:49:02.150Z,87.02
2017-11-14T00:49:42.756Z,87.02
2017-11-14T00:50:23.336Z,87.59
2017-11-14T00:51:03.929Z,87.59
2017-11-14T00:51:44.546Z,87.49
2017-11-14T00:52:25.112Z,87.59
2017-11-14T00:53:05.734Z,87.49
2017-11-14T00:53:46.316Z,87.12
2017-11-14T00:54:26.881Z,87.3
2017-11-14T00:55:07.454Z,87.21
2017-11-14T00:55:48.030Z,87.4
2017-11-14T00:56:28.634Z,87.21
2017-11-14T00:57:09.233Z,87.4
2017-11-14T00:57:49.839Z,87.4
2017-11-14T00:58:30.448Z,87.4
2017-11-14T00:59:11.020Z,87.4
2017-11-14T00:59:51.586Z,87.3
2017-11-14T01:00:32.167Z,87.3
2017-11-14T01:01:12.773Z,87.3
2017-11-14T01:01:53.339Z,87.3
2017-11-14T01:02:33.901Z,87.77
2017-11-14T01:03:14.475Z,87.59
2017-11-14T01:03:55.074Z,87.77
2017-11-14T01:04:35.685Z,87.49
2017-11-14T01:05:16.260Z,87.49
2017-11-14T01:05:56.844Z,87.59
2017-11-14T01:06:37.406Z,87.68
2017-11-14T01:07:17.980Z,87.21
2017-11-14T01:07:58.567Z,87.21
2017-11-14T01:08:39.138Z,87.4
2017-11-14T01:09:19.716Z,87.4
2017-11-14T01:10:00.289Z,87.68
2017-11-14T01:10:40.851Z,87.77
2017-11-14T01:11:21.424Z,87.77
2017-11-14T01:12:02.013Z,87.3
2017-11-14T01:12:42.589Z,87.4
2017-11-14T01:13:23.196Z,87.3
2017-11-14T01:14:03.778Z,87.3
2017-11-14T01:14:44.356Z,87.4
2017-11-14T01:15:24.938Z,87.12
2017-11-14T01:16:05.514Z,87.4
2017-11-14T01:16:46.071Z,87.12
2017-11-14T01:17:26.630Z,87.3
2017-11-14T01:18:07.245Z,87.3
2017-11-14T01:18:47.808Z,87.4
2017-11-14T01:19:28.393Z,87.4
2017-11-14T01:20:08.977Z,87.4
2017-11-14T01:20:49.557Z,87.4
2017-11-14T01:21:30.125Z,87.12
2017-11-14T01:22:10.709Z,87.21
2017-11-14T01:22:51.287Z,87.3
2017-11-14T01:23:31.868Z,87.3
2017-11-14T01:24:12.480Z,86.93
2017-11-14T01:24:53.052Z,86.74
2017-11-14T01:25:33.617Z,86.74
2017-11-14T01:26:14.174Z,87.02
2017-11-14T01:26:54.756Z,87.02
2017-11-14T01:27:35.322Z,86.93
2017-11-14T01:28:15.888Z,87.4
2017-11-14T01:28:56.470Z,87.3
2017-11-14T01:29:37.045Z,87.3
2017-11-14T01:30:17.621Z,87.12
2017-11-14T01:30:58.184Z,87.4
2017-11-14T01:31:38.750Z,87.12
2017-11-14T01:32:19.322Z,87.12
2017-11-14T01:32:59.904Z,87.21
2017-11-14T01:33:40.477Z,87.21
2017-11-14T01:34:21.044Z,86.93
2017-11-14T01:35:01.628Z,86.93
2017-11-14T01:35:42.197Z,86.74
2017-11-14T01:36:22.758Z,86.74
2017-11-14T01:37:03.336Z,86.74
2017-11-14T01:37:43.916Z,86.83
2017-11-14T01:38:24.517Z,86.93
2017-11-14T01:39:05.095Z,86.74
2017-11-14T01:39:45.651Z,86.74
2017-11-14T01:40:26.246Z,87.02
2017-11-14T01:41:06.814Z,87.12
2017-11-14T01:41:47.365Z,87.4
2017-11-14T01:42:27.948Z,87.49
2017-11-14T01:43:08.510Z,87.49
2017-11-14T01:43:49.103Z,87.49
2017-11-14T01:44:29.678Z,87.4
2017-11-14T01:45:10.256Z,87.3
2017-11-14T01:45:50.823Z,87.68
2017-11-14T01:46:31.408Z,87.77
2017-11-14T01:47:11.994Z,87.59
2017-11-14T01:47:52.570Z,87.77
2017-11-14T01:48:39.841Z,88.06
2017-11-14T01:49:20.413Z,87.77
2017-11-14T01:50:00.994Z,88.06
2017-11-14T01:50:41.587Z,87.87
2017-11-14T01:51:22.173Z,87.87
2017-11-14T01:52:02.737Z,88.06
2017-11-14T01:52:43.305Z,88.06
2017-11-14T01:53:23.879Z,87.97
2017-11-14T01:54:04.483Z,87.97
2017-11-14T01:54:45.082Z,87.59
2017-11-14T01:55:25.652Z,87.87
2017-11-14T01:56:06.233Z,88.16
2017-11-14T01:56:46.793Z,88.06
2017-11-14T01:57:27.375Z,88.44
2017-11-14T01:58:07.957Z,88.44
2017-11-14T01:58:48.540Z,88.16
2017-11-14T01:59:29.116Z,88.16
2017-11-14T02:00:09.707Z,87.68
2017-11-14T02:00:50.279Z,87.59
2017-11-14T02:01:30.890Z,87.97
2017-11-14T02:02:11.447Z,87.87
2017-11-14T02:02:52.023Z,87.97
2017-11-14T02:03:32.603Z,87.87
2017-11-14T02:04:13.173Z,87.59
2017-11-14T02:04:53.746Z,87.97
2017-11-14T02:05:34.301Z,88.06
2017-11-14T02:06:14.863Z,88.06
2017-11-14T02:06:55.435Z,87.97
2017-11-14T02:07:36.010Z,88.06
2017-11-14T02:08:16.578Z,88.06
2017-11-14T02:08:57.147Z,88.06
2017-11-14T02:09:37.725Z,87.87
2017-11-14T02:10:18.283Z,87.97
2017-11-14T02:10:58.869Z,87.97
2017-11-14T02:11:39.444Z,87.59
2017-11-14T02:12:20.019Z,87.59
2017-11-14T02:13:00.601Z,87.68
2017-11-14T02:13:41.178Z,88.06
2017-11-14T02:14:21.751Z,88.06
2017-11-14T02:15:02.346Z,87.97
2017-11-14T02:15:42.938Z,87.59
2017-11-14T02:16:23.497Z,87.59
2017-11-14T02:17:04.084Z,87.97
2017-11-14T02:17:44.653Z,87.97
2017-11-14T02:18:25.255Z,87.87
2017-11-14T02:19:05.880Z,87.97
2017-11-14T02:19:46.447Z,87.59
2017-11-14T02:20:27.036Z,87.77
2017-11-14T02:21:07.609Z,87.26
2017-11-14T02:21:48.185Z,87.26
2017-11-14T02:22:28.793Z,87.35
2017-11-14T02:23:09.337Z,87.35
2017-11-14T02:23:49.906Z,87.35
2017-11-14T02:24:30.465Z,87.4
2017-11-14T02:25:11.031Z,87.35
2017-11-14T02:25:51.601Z,87.26
2017-11-14T02:26:32.201Z,87.73
2017-11-14T02:27:12.787Z,87.54
2017-11-14T02:27:53.396Z,87.73
2017-11-14T02:28:33.976Z,87.64
2017-11-14T02:29:14.532Z,88.02
2017-11-14T02:29:55.151Z,88.11
2017-11-14T02:30:35.738Z,87.92
2017-11-14T02:31:16.328Z,87.83
2017-11-14T02:31:56.910Z,87.73
2017-11-14T02:32:37.471Z,87.73
2017-11-14T02:33:18.082Z,87.92
2017-11-14T02:33:58.702Z,87.73
2017-11-14T02:34:39.304Z,87.54
2017-11-14T02:35:19.869Z,87.54
2017-11-14T02:36:00.445Z,87.54
2017-11-14T02:36:41.016Z,87.64
2017-11-14T02:37:21.629Z,88.02
2017-11-14T02:38:02.198Z,87.92
2017-11-14T02:38:42.785Z,87.73
2017-11-14T02:39:23.382Z,87.83
2017-11-14T02:40:03.955Z,87.83
2017-11-14T02:40:44.528Z,87.83
2017-11-14T02:41:25.103Z,87.83
2017-11-14T02:42:05.694Z,87.92
2017-11-14T02:42:46.259Z,87.54
2017-11-14T02:43:26.849Z,87.73
2017-11-14T02:44:07.436Z,87.73
2017-11-14T02:44:48.049Z,88.02
2017-11-14T02:45:28.616Z,88.02
2017-11-14T02:46:09.731Z,87.83
2017-11-14T02:46:55.106Z,88.21
2017-11-14T02:47:40.178Z,88.4
2017-11-14T02:48:23.676Z,88.3
2017-11-14T02:49:08.142Z,88.02
2017-11-14T02:49:50.692Z,88.21
2017-11-14T02:50:34.155Z,88.11
2017-11-14T02:51:18.113Z,88.4
2017-11-14T02:52:01.162Z,88.4
2017-11-14T02:52:45.722Z,88.4
2017-11-14T02:53:30.059Z,88.11
2017-11-14T02:54:14.179Z,88.49
2017-11-14T02:54:57.147Z,88.4
2017-11-14T02:55:41.243Z,88.49
2017-11-14T02:56:25.701Z,88.4
2017-11-14T02:57:07.673Z,88.4
2017-11-14T02:57:51.718Z,88.49
2017-11-14T02:58:35.138Z,88.11
2017-11-14T02:59:17.375Z,88.4
2017-11-14T03:00:04.687Z,88.02
2017-11-14T03:00:48.680Z,87.83
2017-11-14T03:01:32.134Z,88.02
2017-11-14T03:02:16.241Z,88.21
2017-11-14T03:03:02.140Z,88.4
2017-11-14T03:03:44.103Z,88.4
2017-11-14T03:04:25.684Z,88.3
2017-11-14T03:05:11.128Z,88.49
2017-11-14T03:05:52.051Z,87.83
2017-11-14T03:06:33.173Z,87.83
2017-11-14T03:07:18.543Z,87.83
2017-11-14T03:08:02.672Z,87.92
2017-11-14T03:08:46.022Z,88.11
2017-11-14T03:09:30.700Z,87.73
2017-11-14T03:10:13.243Z,87.64
2017-11-14T03:10:57.827Z,87.92
2017-11-14T03:11:40.111Z,87.83
2017-11-14T03:12:19.958Z,88.02
2017-11-14T03:13:00.536Z,88.11
2017-11-14T03:13:41.092Z,88.02
2017-11-14T03:14:21.671Z,88.02
2017-11-14T03:15:03.775Z,87.73
2017-11-14T03:15:44.162Z,87.83
2017-11-14T03:16:24.721Z,87.83
2017-11-14T03:17:05.278Z,87.92
2017-11-14T03:17:45.848Z,87.54
2017-11-14T03:18:27.185Z,87.54
2017-11-14T03:19:09.759Z,87.73
2017-11-14T03:19:50.437Z,87.92
2017-11-14T03:20:31.001Z,88.02
2017-11-14T03:21:11.572Z,87.83
2017-11-14T03:21:52.122Z,88.11
2017-11-14T03:22:32.691Z,87.73
2017-11-14T03:23:13.276Z,87.83
2017-11-14T03:23:53.886Z,87.73
2017-11-14T03:24:34.491Z,87.73
2017-11-14T03:25:15.066Z,87.83
2017-11-14T03:25:57.860Z,88.02
2017-11-14T03:26:38.446Z,87.92
2017-11-14T03:27:19.009Z,88.11
2017-11-14T03:27:59.572Z,88.3
2017-11-14T03:28:40.149Z,88.21
2017-11-14T03:29:20.718Z,88.4
2017-11-14T03:30:01.286Z,87.92
2017-11-14T03:30:41.850Z,88.49
2017-11-14T03:31:22.461Z,88.4
2017-11-14T03:32:03.029Z,88.4
2017-11-14T03:32:43.632Z,88.02
2017-11-14T03:33:24.236Z,88.02
2017-11-14T03:34:04.820Z,88.11
2017-11-14T03:34:45.420Z,88.11
2017-11-14T03:35:26.001Z,87.73
2017-11-14T03:36:06.574Z,87.64
2017-11-14T03:36:47.152Z,88.02
2017-11-14T03:37:27.708Z,88.02
2017-11-14T03:38:08.282Z,88.02
2017-11-14T03:38:48.842Z,88.11
2017-11-14T03:39:29.410Z,88.11
2017-11-14T03:40:09.993Z,88.02
2017-11-14T03:40:50.559Z,88.4
2017-11-14T03:41:31.131Z,88.4
2017-11-14T03:42:11.689Z,88.4
2017-11-14T03:42:52.316Z,87.83
2017-11-14T03:43:32.852Z,87.83
2017-11-14T03:44:13.420Z,87.83
2017-11-14T03:44:53.983Z,88.02
2017-11-14T03:45:34.558Z,87.83
2017-11-14T03:46:15.138Z,88.11
2017-11-14T03:46:55.730Z,88.11
2017-11-14T03:47:36.295Z,87.64
2017-11-14T03:48:16.871Z,87.73
2017-11-14T03:48:57.439Z,87.54
2017-11-14T03:49:38.006Z,87.64
2017-11-14T03:50:18.560Z,87.64
2017-11-14T03:50:59.123Z,87.73
2017-11-14T03:51:39.727Z,87.54
2017-11-14T03:52:20.299Z,87.73
2017-11-14T03:53:00.886Z,87.73
2017-11-14T03:53:41.453Z,87.73
2017-11-14T03:54:22.011Z,87.92
2017-11-14T03:55:02.599Z,87.54
2017-11-14T03:55:43.167Z,87.54
2017-11-14T03:56:23.749Z,87.64
2017-11-14T03:57:04.313Z,87.64
2017-11-14T03:57:44.880Z,88.11
2017-11-14T03:58:25.471Z,88.11
2017-11-14T03:59:06.335Z,88.21
2017-11-14T03:59:46.923Z,88.4
2017-11-14T04:00:27.682Z,88.02
2017-11-14T04:01:08.261Z,88.21
2017-11-14T04:01:48.845Z,88.21
2017-11-14T04:02:29.399Z,88.11
2017-11-14T04:03:09.970Z,88.21
2017-11-14T04:03:50.537Z,88.11
2017-11-14T04:04:31.122Z,88.49
2017-11-14T04:05:12.106Z,88.11
2017-11-14T04:05:52.673Z,88.4
2017-11-14T04:06:33.266Z,88.3
2017-11-14T04:07:13.869Z,88.3
2017-11-14T04:07:54.489Z,88.49
2017-11-14T04:08:35.078Z,88.78
2017-11-14T04:09:15.655Z,88.3
2017-11-14T04:09:56.208Z,88.78
2017-11-14T04:10:36.793Z,88.68
2017-11-14T04:11:17.366Z,88.11
2017-11-14T04:11:57.938Z,88.87
2017-11-14T04:12:38.512Z,88.49
2017-11-14T04:13:19.101Z,88.4
2017-11-14T04:13:59.662Z,88.4
2017-11-14T04:14:40.233Z,88.4
2017-11-14T04:15:20.811Z,88.21
2017-11-14T04:16:01.387Z,88.21
2017-11-14T04:16:41.960Z,88.49
2017-11-14T04:17:22.575Z,88.21
2017-11-14T04:18:03.141Z,88.21
2017-11-14T04:18:43.723Z,88.4
2017-11-14T04:19:24.293Z,88.21
2017-11-14T04:20:04.875Z,88.11
2017-11-14T04:20:45.446Z,88.21
2017-11-14T04:21:26.047Z,88.21
2017-11-14T04:22:06.647Z,88.02
2017-11-14T04:22:47.215Z,88.02
2017-11-14T04:23:27.801Z,88.49
2017-11-14T04:24:08.371Z,87.92
2017-11-14T04:24:48.927Z,88.3
2017-11-14T04:25:29.510Z,88.4
2017-11-14T04:26:10.080Z,88.3
2017-11-14T04:26:50.643Z,88.4
2017-11-14T04:27:31.200Z,88.21
2017-11-14T04:28:11.772Z,88.49
2017-11-14T04:28:52.340Z,88.21
2017-11-14T04:29:32.917Z,88.3
2017-11-14T04:30:13.505Z,88.21
2017-11-14T04:30:54.073Z,88.4
2017-11-14T04:31:34.636Z,88.49
2017-11-14T04:32:15.218Z,88.11
2017-11-14T04:32:55.784Z,88.3
2017-11-14T04:33:36.366Z,88.3
2017-11-14T04:34:16.938Z,88.59
2017-11-14T04:34:57.535Z,88.3
2017-11-14T04:35:38.107Z,88.4
2017-11-14T04:36:18.679Z,88.11
2017-11-14T04:36:59.240Z,88.59
2017-11-14T04:37:39.808Z,88.59
2017-11-14T04:38:20.373Z,88.59
2017-11-14T04:39:00.950Z,88.11
2017-11-14T04:39:41.509Z,88.21
2017-11-14T04:40:22.103Z,88.02
2017-11-14T04:41:02.676Z,88.4
2017-11-14T04:41:43.267Z,87.83
2017-11-14T04:42:23.842Z,88.21
2017-11-14T04:43:04.429Z,88.11
2017-11-14T04:43:45.000Z,87.83
2017-11-14T04:44:25.567Z,88.11
2017-11-14T04:45:06.140Z,88.02
2017-11-14T04:45:46.702Z,88.02
2017-11-14T04:46:27.270Z,88.02
2017-11-14T04:47:08.121Z,88.4
2017-11-14T04:47:48.703Z,88.4
2017-11-14T04:48:29.290Z,88.4
2017-11-14T04:49:09.858Z,88.4
2017-11-14T04:49:50.416Z,88.11
2017-11-14T04:50:31.066Z,88.49
2017-11-14T04:51:11.651Z,88.4
2017-11-14T04:51:52.225Z,88.11
2017-11-14T04:52:32.798Z,88.3
2017-11-14T04:53:13.358Z,88.21
2017-11-14T04:53:53.967Z,88.78
2017-11-14T04:54:34.539Z,88.68
2017-11-14T04:55:15.098Z,88.87
2017-11-14T04:55:55.660Z,88.59
2017-11-14T04:56:36.233Z,88.87
2017-11-14T04:57:16.799Z,88.11
2017-11-14T04:57:57.375Z,88.68
2017-11-14T04:58:37.956Z,88.02
2017-11-14T04:59:18.556Z,88.21
2017-11-14T04:59:59.146Z,88.68
2017-11-14T05:00:39.721Z,88.21
2017-11-14T05:01:20.293Z,88.59
2017-11-14T05:02:00.894Z,88.49
2017-11-14T05:02:41.462Z,88.59
2017-11-14T05:03:22.038Z,88.4
2017-11-14T05:04:02.627Z,88.4
2017-11-14T05:04:43.200Z,87.83
2017-11-14T05:05:23.773Z,88.11
2017-11-14T05:06:04.363Z,87.92
2017-11-14T05:06:44.944Z,87.92
2017-11-14T05:07:25.528Z,88.02
2017-11-14T05:08:06.104Z,88.02
2017-11-14T05:08:46.684Z,87.83
2017-11-14T05:09:27.271Z,88.49
2017-11-14T05:10:07.866Z,88.11
2017-11-14T05:10:48.471Z,87.64
2017-11-14T05:11:29.046Z,87.92
2017-11-14T05:12:09.639Z,87.73
2017-11-14T05:12:50.212Z,87.64
2017-11-14T05:13:30.779Z,87.83
2017-11-14T05:14:11.358Z,87.92
2017-11-14T05:14:51.938Z,87.83
2017-11-14T05:15:32.536Z,87.92
2017-11-14T05:16:13.128Z,87.83
2017-11-14T05:16:53.698Z,87.83
2017-11-14T05:17:34.280Z,87.64
2017-11-14T05:18:14.822Z,87.92
2017-11-14T05:18:55.384Z,87.83
2017-11-14T05:19:35.948Z,88.02
2017-11-14T05:20:16.531Z,88.35
2017-11-14T05:20:57.093Z,88.02
2017-11-14T05:21:37.678Z,88.21
2017-11-14T05:22:18.239Z,87.98
2017-11-14T05:22:58.830Z,88.35
2017-11-14T05:23:39.406Z,88.21
2017-11-14T05:24:19.976Z,88.21
2017-11-14T05:25:00.547Z,88.21
2017-11-14T05:25:41.142Z,88.21
2017-11-14T05:26:21.710Z,88.21
2017-11-14T05:27:02.280Z,88.35
2017-11-14T05:27:42.842Z,88.02
2017-11-14T05:28:23.414Z,88.49
2017-11-14T05:29:04.011Z,88.07
2017-11-14T05:29:44.599Z,88.4
2017-11-14T05:30:25.160Z,88.49
2017-11-14T05:31:05.735Z,88.49
2017-11-14T05:31:46.322Z,88.11
2017-11-14T05:32:26.922Z,88.3
2017-11-14T05:33:07.489Z,88.3
2017-11-14T05:33:48.068Z,88.11
2017-11-14T05:34:28.690Z,87.83
2017-11-14T05:35:09.274Z,88.11
2017-11-14T05:35:49.861Z,87.83
2017-11-14T05:36:30.452Z,87.83
2017-11-14T05:37:11.032Z,87.92
2017-11-14T05:37:51.628Z,87.64
2017-11-14T05:38:32.216Z,87.73
2017-11-14T05:39:12.786Z,88.02
2017-11-14T05:39:53.360Z,88.02
2017-11-14T05:40:33.926Z,87.73
2017-11-14T05:41:14.528Z,87.92
2017-11-14T05:41:55.094Z,88.21
2017-11-14T05:42:35.660Z,88.02
2017-11-14T05:43:16.270Z,88.02
2017-11-14T05:43:56.834Z,87.83
2017-11-14T05:44:37.401Z,88.02
2017-11-14T05:45:17.979Z,88.4
2017-11-14T05:45:58.563Z,88.11
2017-11-14T05:46:39.168Z,88.4
2017-11-14T05:47:19.725Z,88.3
2017-11-14T05:48:00.301Z,88.3
2017-11-14T05:48:40.852Z,88.11
2017-11-14T05:49:21.453Z,88.49
2017-11-14T05:50:01.994Z,88.02
2017-11-14T05:50:42.573Z,88.4
2017-11-14T05:51:23.136Z,88.78
2017-11-14T05:52:03.716Z,88.78
2017-11-14T05:52:44.277Z,88.3
2017-11-14T05:53:24.876Z,88.78
2017-11-14T05:54:05.455Z,88.78
2017-11-14T05:54:46.009Z,88.78
2017-11-14T05:55:26.573Z,88.21
2017-11-14T05:56:07.130Z,88.87
2017-11-14T05:56:47.841Z,88.4
2017-11-14T05:57:28.414Z,88.3
2017-11-14T05:58:08.990Z,88.4
2017-11-14T05:58:50.227Z,88.21
2017-11-14T05:59:30.791Z,88.4
2017-11-14T06:00:11.371Z,88.21
2017-11-14T06:00:51.949Z,88.21
2017-11-14T06:01:32.539Z,88.11
2017-11-14T06:02:13.110Z,88.4
2017-11-14T06:02:53.676Z,88.21
2017-11-14T06:03:34.294Z,88.3
2017-11-14T06:04:14.857Z,88.4
2017-11-14T06:04:55.436Z,87.83
2017-11-14T06:05:35.994Z,88.02
2017-11-14T06:06:16.596Z,88.3
2017-11-14T06:06:57.225Z,88.3
2017-11-14T06:07:37.779Z,88.4
2017-11-14T06:08:18.343Z,88.3
2017-11-14T06:08:58.907Z,88.4
2017-11-14T06:09:39.537Z,88.17
2017-11-14T06:10:20.097Z,88.4
2017-11-14T06:11:00.704Z,88.21
2017-11-14T06:11:41.253Z,88.49
2017-11-14T06:12:21.869Z,87.98
2017-11-14T06:13:02.444Z,88.26
2017-11-14T06:13:43.013Z,88.17
2017-11-14T06:14:23.579Z,88.45
2017-11-14T06:15:04.155Z,88.35
2017-11-14T06:15:44.829Z,88.45
2017-11-14T06:16:25.417Z,88.82
2017-11-14T06:17:06.000Z,88.82
2017-11-14T06:17:46.560Z,88.45
2017-11-14T06:18:27.131Z,88.82
2017-11-14T06:19:07.750Z,89.3
2017-11-14T06:19:48.313Z,89.68
2017-11-14T06:20:28.884Z,91.1
2017-11-14T06:21:09.457Z,95.45
2017-11-14T06:21:50.020Z,99.86
2017-11-14T06:22:30.627Z,99.99
2017-11-14T06:23:11.220Z,99.99
2017-11-14T06:23:51.778Z,99.99
2017-11-14T06:24:32.346Z,99.99
2017-11-14T06:25:13.729Z,99.99
2017-11-14T06:25:54.328Z,99.99
2017-11-14T06:26:34.899Z,99.99
2017-11-14T06:27:15.483Z,99.99
2017-11-14T06:27:56.024Z,99.99
2017-11-14T06:28:36.612Z,99.54
2017-11-14T06:29:17.173Z,97.92
2017-11-14T06:29:57.779Z,95.98
2017-11-14T06:30:38.352Z,95.03
2017-11-14T06:31:18.914Z,93.6
2017-11-14T06:31:59.479Z,91.52
2017-11-14T06:32:40.055Z,89.9
2017-11-14T06:33:20.619Z,89.05
2017-11-14T06:34:01.219Z,86.77
2017-11-14T06:34:41.833Z,86.77
2017-11-14T06:35:22.394Z,86.11
2017-11-14T06:36:02.964Z,84.3
2017-11-14T06:36:43.564Z,84.4
2017-11-14T06:37:24.115Z,83.36
2017-11-14T06:38:04.734Z,84.25
2017-11-14T06:38:45.349Z,82.69
2017-11-14T06:39:25.942Z,82.54
2017-11-14T06:40:06.587Z,82.26
2017-11-14T06:40:47.162Z,82.35
2017-11-14T06:41:27.730Z,82.35
2017-11-14T06:42:08.310Z,82.64
2017-11-14T06:42:48.876Z,82.64
2017-11-14T06:43:29.437Z,82.82
2017-11-14T06:44:10.040Z,82.35
2017-11-14T06:44:50.622Z,81.78
2017-11-14T06:45:31.178Z,80.49
2017-11-14T06:46:11.736Z,80.3
2017-11-14T06:46:52.344Z,79.92
2017-11-14T06:47:32.930Z,79.44
2017-11-14T06:48:13.527Z,79.06
2017-11-14T06:48:54.137Z,78.78
2017-11-14T06:49:34.703Z,78.59
2017-11-14T06:50:15.267Z,77.92
2017-11-14T06:50:55.853Z,77.11
2017-11-14T06:51:36.431Z,77.49
2017-11-14T06:52:16.997Z,77.2
2017-11-14T06:52:57.599Z,76.54
2017-11-14T06:53:38.185Z,75.87
2017-11-14T06:54:18.753Z,75.87
2017-11-14T06:54:59.325Z,75.11
2017-11-14T06:55:39.899Z,74.73
2017-11-14T06:56:20.470Z,74.73
2017-11-14T06:57:01.063Z,74.54
2017-11-14T06:57:41.616Z,74.16
2017-11-14T06:58:22.212Z,73.78
2017-11-14T06:59:02.788Z,73.4
2017-11-14T06:59:43.353Z,72.83
2017-11-14T07:00:23.948Z,72.92
2017-11-14T07:01:04.512Z,72.26
2017-11-14T07:01:45.072Z,72.83
2017-11-14T07:02:25.644Z,72.74
2017-11-14T07:03:06.213Z,72.35
2017-11-14T07:03:46.820Z,72.64
2017-11-14T07:04:27.401Z,72.45
2017-11-14T07:05:07.989Z,72.26
2017-11-14T07:05:48.567Z,71.88
2017-11-14T07:06:29.135Z,71.97
2017-11-14T07:07:09.708Z,70.54
2017-11-14T07:07:50.289Z,69.79
2017-11-14T07:08:30.857Z,69.27
2017-11-14T07:09:11.430Z,68.99
2017-11-14T07:09:52.009Z,69.18
2017-11-14T07:10:32.593Z,69.91
2017-11-14T07:11:13.205Z,70.48
2017-11-14T07:11:53.777Z,70.86
2017-11-14T07:12:34.335Z,71.62
2017-11-14T07:13:14.900Z,72.15
2017-11-14T07:13:55.484Z,72.72
2017-11-14T07:14:36.067Z,73.19
2017-11-14T07:15:16.626Z,73.82
2017-11-14T07:15:57.210Z,74.58
2017-11-14T07:16:37.784Z,74.77
2017-11-14T07:17:18.348Z,75.53
2017-11-14T07:17:58.920Z,76.01
2017-11-14T07:18:39.512Z,77.11
2017-11-14T07:19:20.077Z,77.67
2017-11-14T07:20:00.645Z,78.24
2017-11-14T07:20:41.258Z,78.81
2017-11-14T07:21:21.908Z,79.57
2017-11-14T07:22:02.476Z,80
2017-11-14T07:22:43.055Z,80.86
2017-11-14T07:23:23.611Z,81.24
2017-11-14T07:24:04.189Z,82.37
2017-11-14T07:24:44.768Z,82.18
2017-11-14T07:25:25.365Z,83.13
2017-11-14T07:26:05.915Z,83.61
2017-11-14T07:26:46.497Z,84.32
2017-11-14T07:27:27.087Z,84.32
2017-11-14T07:28:07.659Z,84.99
2017-11-14T07:28:48.221Z,85.17
2017-11-14T07:29:28.805Z,85.74
2017-11-14T07:30:09.398Z,86.5
2017-11-14T07:30:49.968Z,85.93
2017-11-14T07:31:30.573Z,86.6
2017-11-14T07:32:11.146Z,87.07
2017-11-14T07:32:51.757Z,86.79
2017-11-14T07:33:32.322Z,86.88
2017-11-14T07:34:12.896Z,86.88
2017-11-14T07:34:53.474Z,86.88
2017-11-14T07:35:34.042Z,86.69
2017-11-14T07:36:14.627Z,87.07
2017-11-14T07:36:55.206Z,86.98
2017-11-14T07:37:35.759Z,87.54
2017-11-14T07:38:16.335Z,87.54
2017-11-14T07:38:56.884Z,87.73
2017-11-14T07:39:37.455Z,88.11
2017-11-14T07:40:18.043Z,88.21
2017-11-14T07:40:58.601Z,88.4
2017-11-14T07:41:39.181Z,88.78
2017-11-14T07:42:19.759Z,88.78
2017-11-14T07:43:00.356Z,89.06
2017-11-14T07:43:40.924Z,89.53
2017-11-14T07:44:21.488Z,89.72
2017-11-14T07:45:02.049Z,90.1
2017-11-14T07:45:42.600Z,90.39
2017-11-14T07:46:23.166Z,90.58
2017-11-14T07:47:03.741Z,90.77
2017-11-14T07:47:44.326Z,90.58
2017-11-14T07:48:24.899Z,91.14
2017-11-14T07:49:05.464Z,91.38
2017-11-14T07:49:46.090Z,91.19
2017-11-14T07:50:26.661Z,91.19
2017-11-14T07:51:07.271Z,92.05
2017-11-14T07:51:47.891Z,91.86
2017-11-14T07:52:28.465Z,92.24
2017-11-14T07:53:09.079Z,92.05
2017-11-14T07:53:49.661Z,92.52
2017-11-14T07:54:30.238Z,92.05
2017-11-14T07:55:10.800Z,93.08
2017-11-14T07:55:51.351Z,92.9
2017-11-14T07:56:31.912Z,93.18
2017-11-14T07:57:12.489Z,93.08
2017-11-14T07:57:53.056Z,93.08
2017-11-14T07:58:33.626Z,92.9
2017-11-14T07:59:14.188Z,93.18
2017-11-14T07:59:54.764Z,93.08
2017-11-14T08:00:35.329Z,93.08
2017-11-14T08:01:15.919Z,93.08
2017-11-14T08:01:56.513Z,93.56
2017-11-14T08:02:37.093Z,93.27
2017-11-14T08:03:17.665Z,93.27
2017-11-14T08:03:58.237Z,93.08
2017-11-14T08:04:38.826Z,93.18
2017-11-14T08:05:19.404Z,92.9
2017-11-14T08:05:59.998Z,92.71
2017-11-14T08:06:40.582Z,93.08
2017-11-14T08:07:21.142Z,93.18
2017-11-14T08:08:01.732Z,94.23
2017-11-14T08:08:42.330Z,93.94
2017-11-14T08:09:22.899Z,93.94
2017-11-14T08:10:03.494Z,93.84
2017-11-14T08:10:44.086Z,93.56
2017-11-14T08:11:24.659Z,94.42
2017-11-14T08:12:05.250Z,94.56
2017-11-14T08:12:45.822Z,94.37
2017-11-14T08:13:26.396Z,94.27
2017-11-14T08:14:06.990Z,94.32
2017-11-14T08:14:47.562Z,94.37
2017-11-14T08:15:28.164Z,94.51
2017-11-14T08:16:09.121Z,94.13
2017-11-14T08:16:49.669Z,94.51
2017-11-14T08:17:30.234Z,94.56
2017-11-14T08:18:10.832Z,94.37
2017-11-14T08:18:51.407Z,94.27
2017-11-14T08:19:31.976Z,93.61
2017-11-14T08:20:12.588Z,93.89
2017-11-14T08:20:53.141Z,93.8
2017-11-14T08:21:33.702Z,93.89
2017-11-14T08:22:14.255Z,93.8
2017-11-14T08:22:54.830Z,93.99
2017-11-14T08:23:35.392Z,93.99
2017-11-14T08:24:15.952Z,94.08
2017-11-14T08:24:56.503Z,94.27
2017-11-14T08:25:37.081Z,94.56
2017-11-14T08:26:17.650Z,94.37
2017-11-14T08:26:58.211Z,94.37
2017-11-14T08:27:38.809Z,94.46
2017-11-14T08:28:19.379Z,94.27
2017-11-14T08:28:59.958Z,94.56
2017-11-14T08:29:40.533Z,94.46
2017-11-14T08:30:21.132Z,94.56
2017-11-14T08:31:01.735Z,94.18
2017-11-14T08:31:42.297Z,94.65
2017-11-14T08:32:22.855Z,94.46
2017-11-14T08:33:03.433Z,94.56
2017-11-14T08:33:43.993Z,94.46
2017-11-14T08:34:24.564Z,94.46
2017-11-14T08:35:05.173Z,94.84
2017-11-14T08:35:45.783Z,94.56
2017-11-14T08:36:26.354Z,95.22
2017-11-14T08:37:06.937Z,94.84
2017-11-14T08:37:47.511Z,95.31
2017-11-14T08:38:28.077Z,95.31
2017-11-14T08:39:08.643Z,95.41
2017-11-14T08:39:49.216Z,94.65
2017-11-14T08:40:29.789Z,94.84
2017-11-14T08:41:10.443Z,95.22
2017-11-14T08:41:51.029Z,95.5
2017-11-14T08:42:31.591Z,94.93
2017-11-14T08:43:12.233Z,94.93
2017-11-14T08:43:52.810Z,94.74
2017-11-14T08:44:33.358Z,94.84
2017-11-14T08:45:13.926Z,95.22
2017-11-14T08:45:54.498Z,94.84
2017-11-14T08:46:35.077Z,94.84
2017-11-14T08:47:15.640Z,95.03
2017-11-14T08:47:56.243Z,95.5